createdAt,value
2022-11-09T00:02:19.693Z,57.70
2022-11-09T00:04:46.365Z,58.20
2022-11-09T00:07:13.160Z,57.20
2022-11-09T00:09:40.062Z,58.20
2022-11-09T00:12:07.433Z,58.10
2022-11-09T00:14:35.205Z,58.80
2022-11-09T00:17:01.878Z,58.90
2022-11-09T00:19:29.355Z,58.80
2022-11-09T00:21:55.995Z,58.70
2022-11-09T00:24:22.611Z,58.40
2022-11-09T00:26:49.354Z,59.00
2022-11-09T00:29:16.022Z,59.50
2022-11-09T00:31:43.216Z,59.90
2022-11-09T00:34:09.824Z,59.50
2022-11-09T00:36:36.468Z,59.60
2022-11-09T00:39:03.282Z,60.10
2022-11-09T00:41:29.980Z,60.60
2022-11-09T00:43:56.648Z,60.70
2022-11-09T00:46:23.500Z,60.20
2022-11-09T00:48:50.261Z,59.90
2022-11-09T00:51:17.014Z,61.10
2022-11-09T00:53:43.649Z,61.70
2022-11-09T00:56:12.306Z,60.20
2022-11-09T00:58:39.370Z,61.30
2022-11-09T01:01:11.730Z,61.50
2022-11-09T01:03:38.459Z,60.30
2022-11-09T01:06:05.759Z,60.30
2022-11-09T01:08:33.720Z,59.70
2022-11-09T01:11:06.013Z,58.90
2022-11-09T01:13:32.629Z,59.30
2022-11-09T01:15:59.285Z,59.20
2022-11-09T01:18:25.930Z,58.10
2022-11-09T01:20:52.587Z,59.20
2022-11-09T01:23:20.354Z,59.00
2022-11-09T01:25:49.371Z,59.20
2022-11-09T01:28:16.369Z,59.90
2022-11-09T01:30:43.302Z,58.40
2022-11-09T01:33:11.635Z,56.70
2022-11-09T01:35:39.675Z,58.10
2022-11-09T01:38:07.779Z,57.80
2022-11-09T01:40:36.063Z,58.10
2022-11-09T01:43:23.296Z,57.30
2022-11-09T01:46:02.399Z,57.00
2022-11-09T01:48:46.068Z,57.60
2022-11-09T01:51:18.828Z,56.20
2022-11-09T01:53:49.050Z,55.90
2022-11-09T01:56:15.960Z,56.70
2022-11-09T01:58:48.790Z,57.90
2022-11-09T02:01:16.477Z,59.30
2022-11-09T02:03:53.868Z,56.20
2022-11-09T02:06:22.329Z,53.40
2022-11-09T02:08:49.574Z,53.30
2022-11-09T02:11:21.136Z,55.50
2022-11-09T02:13:56.919Z,57.90
2022-11-09T02:16:23.734Z,57.70
2022-11-09T02:18:55.805Z,56.40
2022-11-09T02:21:24.610Z,56.60
2022-11-09T02:23:51.750Z,57.30
2022-11-09T02:26:42.942Z,59.00
2022-11-09T02:29:12.143Z,58.70
2022-11-09T02:31:42.244Z,58.50
2022-11-09T02:34:17.627Z,58.70
2022-11-09T02:36:44.315Z,58.90
2022-11-09T02:39:11.782Z,59.10
2022-11-09T02:41:44.383Z,59.30
2022-11-09T02:44:11.157Z,59.50
2022-11-09T02:46:38.027Z,60.70
2022-11-09T02:49:04.972Z,59.50
2022-11-09T02:51:32.031Z,59.60
2022-11-09T02:53:58.960Z,59.60
2022-11-09T02:56:25.626Z,58.90
2022-11-09T02:58:52.333Z,57.90
2022-11-09T03:01:19.092Z,59.80
2022-11-09T03:03:45.735Z,59.90
2022-11-09T03:06:12.384Z,58.30
2022-11-09T03:08:39.066Z,59.70
2022-11-09T03:11:09.000Z,60.20
2022-11-09T03:13:35.660Z,61.30
2022-11-09T03:16:06.580Z,61.00
2022-11-09T03:18:33.418Z,60.40
2022-11-09T03:21:05.131Z,60.10
2022-11-09T03:23:32.455Z,61.00
2022-11-09T03:25:59.096Z,61.60
2022-11-09T03:28:26.167Z,62.60
2022-11-09T03:30:52.896Z,62.30
2022-11-09T03:33:19.813Z,59.60
2022-11-09T03:35:46.767Z,62.80
2022-11-09T03:38:13.517Z,63.50
2022-11-09T03:40:40.441Z,64.80
2022-11-09T03:43:07.177Z,61.90
2022-11-09T03:45:33.895Z,62.10
2022-11-09T03:48:00.596Z,62.20
2022-11-09T03:50:28.695Z,59.50
2022-11-09T03:52:55.789Z,59.90
2022-11-09T03:55:22.471Z,61.40
2022-11-09T03:57:49.680Z,57.40
2022-11-09T04:00:18.690Z,57.20
2022-11-09T04:02:45.302Z,58.10
2022-11-09T04:05:12.436Z,56.60
2022-11-09T04:07:39.770Z,58.90
2022-11-09T04:10:07.177Z,58.60
2022-11-09T04:12:33.790Z,59.50
2022-11-09T04:15:00.385Z,59.40
2022-11-09T04:17:27.023Z,62.40
2022-11-09T04:19:53.713Z,61.90
2022-11-09T04:22:20.361Z,63.90
2022-11-09T04:24:46.973Z,63.10
2022-11-09T04:27:13.726Z,62.70
2022-11-09T04:29:40.341Z,65.10
2022-11-09T04:32:07.558Z,62.20
2022-11-09T04:34:34.200Z,63.50
2022-11-09T04:37:00.865Z,63.80
2022-11-09T04:39:27.909Z,62.20
2022-11-09T04:41:54.610Z,64.80
2022-11-09T04:44:21.235Z,61.70
2022-11-09T04:46:47.927Z,61.20
2022-11-09T04:49:14.533Z,61.70
2022-11-09T04:51:41.221Z,61.10
2022-11-09T04:54:07.855Z,62.70
2022-11-09T04:56:34.526Z,65.20
2022-11-09T04:59:01.165Z,65.50
2022-11-09T05:01:27.779Z,67.00
2022-11-09T05:03:54.482Z,67.80
2022-11-09T05:06:33.305Z,68.60
2022-11-09T05:09:02.090Z,67.80
2022-11-09T05:11:29.353Z,68.40
2022-11-09T05:13:55.985Z,71.00
2022-11-09T05:16:23.387Z,72.10
2022-11-09T05:18:50.617Z,70.20
2022-11-09T05:21:17.649Z,67.80
2022-11-09T05:23:59.862Z,67.30
2022-11-09T05:26:32.174Z,67.80
2022-11-09T05:29:00.159Z,67.50
2022-11-09T05:31:27.776Z,67.70
2022-11-09T05:33:54.969Z,64.80
2022-11-09T05:36:22.044Z,66.00
2022-11-09T05:38:49.008Z,68.50
2022-11-09T05:41:16.278Z,70.20
2022-11-09T05:43:44.819Z,68.00
2022-11-09T05:46:15.712Z,70.30
2022-11-09T05:48:42.988Z,72.10
2022-11-09T05:51:12.392Z,70.90
2022-11-09T05:53:43.665Z,71.80
2022-11-09T05:56:15.961Z,72.40
2022-11-09T05:58:43.281Z,72.40
2022-11-09T06:01:12.420Z,70.80
2022-11-09T06:03:40.396Z,72.40
2022-11-09T06:06:09.068Z,74.60
2022-11-09T06:08:36.235Z,75.40
2022-11-09T06:11:09.347Z,74.60
2022-11-09T06:13:36.167Z,75.80
2022-11-09T06:16:04.699Z,73.60
2022-11-09T06:18:33.387Z,73.10
2022-11-09T06:21:01.764Z,73.00
2022-11-09T06:23:29.403Z,72.30
2022-11-09T06:26:09.641Z,73.50
2022-11-09T06:28:37.599Z,73.80
2022-11-09T06:31:06.362Z,74.80
2022-11-09T06:33:34.519Z,73.70
2022-11-09T06:36:02.067Z,74.10
2022-11-09T06:38:28.909Z,73.70
2022-11-09T06:40:57.350Z,71.70
2022-11-09T06:43:24.590Z,73.20
2022-11-09T06:45:51.488Z,74.50
2022-11-09T06:48:18.673Z,72.00
2022-11-09T06:50:45.636Z,72.00
2022-11-09T06:53:14.988Z,72.70
2022-11-09T06:55:45.840Z,73.40
2022-11-09T06:58:16.958Z,73.70
2022-11-09T07:00:44.569Z,76.80
2022-11-09T07:03:15.726Z,76.00
2022-11-09T07:05:42.820Z,75.20
2022-11-09T07:08:09.965Z,77.60
2022-11-09T07:10:37.517Z,77.10
2022-11-09T07:13:05.113Z,78.30
2022-11-09T07:15:32.724Z,80.10
2022-11-09T07:18:04.073Z,80.50
2022-11-09T07:20:31.260Z,87.50
2022-11-09T07:22:58.130Z,88.10
2022-11-09T07:25:27.223Z,87.00
2022-11-09T07:27:54.180Z,81.50
2022-11-09T07:30:21.220Z,80.60
2022-11-09T07:35:34.767Z,77.40
2022-11-09T07:38:01.976Z,74.70
2022-11-09T07:40:29.433Z,76.20
2022-11-09T07:43:04.691Z,74.90
2022-11-09T07:45:32.673Z,75.00
2022-11-09T07:48:04.419Z,74.00
2022-11-09T07:50:32.380Z,71.00
2022-11-09T07:52:59.846Z,71.90
2022-11-09T07:55:29.082Z,73.10
2022-11-09T07:57:59.755Z,74.90
2022-11-09T08:00:28.184Z,72.70
2022-11-09T08:02:55.446Z,74.10
2022-11-09T08:05:22.366Z,74.90
2022-11-09T08:07:49.144Z,72.80
2022-11-09T08:10:16.141Z,74.10
2022-11-09T08:12:42.818Z,72.70
2022-11-09T08:15:10.145Z,69.80
2022-11-09T08:17:36.873Z,70.60
2022-11-09T08:20:03.964Z,70.20
2022-11-09T08:22:30.767Z,68.70
2022-11-09T08:24:57.525Z,67.50
2022-11-09T08:27:24.313Z,67.70
2022-11-09T08:29:51.138Z,66.30
2022-11-09T08:32:17.989Z,65.70
2022-11-09T08:34:48.271Z,65.90
2022-11-09T08:37:15.966Z,65.40
2022-11-09T08:39:42.633Z,67.60
2022-11-09T08:42:09.368Z,70.90
2022-11-09T08:44:36.100Z,69.60
2022-11-09T08:47:02.946Z,72.80
2022-11-09T08:49:29.687Z,73.60
2022-11-09T08:51:56.405Z,71.10
2022-11-09T08:54:23.159Z,68.30
2022-11-09T08:56:51.154Z,72.50
2022-11-09T08:59:17.858Z,74.80
2022-11-09T09:01:44.713Z,76.00
2022-11-09T09:04:11.402Z,76.20
2022-11-09T09:06:38.166Z,76.40
2022-11-09T09:09:04.946Z,76.50
2022-11-09T09:11:31.637Z,79.90
2022-11-09T09:13:58.342Z,78.20
2022-11-09T09:16:25.292Z,74.50
2022-11-09T09:18:52.065Z,80.10
2022-11-09T09:21:18.794Z,81.40
2022-11-09T09:23:48.796Z,80.90
2022-11-09T09:26:16.088Z,77.40
2022-11-09T09:28:43.121Z,75.30
2022-11-09T09:31:13.031Z,75.90
2022-11-09T09:33:42.404Z,78.70
2022-11-09T09:36:14.659Z,83.10
2022-11-09T09:38:41.451Z,79.10
2022-11-09T09:41:11.523Z,81.20
2022-11-09T09:43:47.884Z,79.10
2022-11-09T09:46:36.588Z,81.70
2022-11-09T09:49:13.134Z,83.00
2022-11-09T09:52:07.636Z,81.90
2022-11-09T09:54:39.818Z,84.10
2022-11-09T09:57:22.216Z,83.60
2022-11-09T09:59:51.659Z,85.20
2022-11-09T10:02:30.522Z,89.00
2022-11-09T10:05:02.341Z,86.50
2022-11-09T10:07:42.987Z,90.80
2022-11-09T10:10:18.839Z,90.70
2022-11-09T10:13:14.630Z,90.70
2022-11-09T10:15:59.397Z,90.00
2022-11-09T10:18:29.190Z,91.60
2022-11-09T10:21:05.064Z,92.30
2022-11-09T10:24:07.761Z,91.20
2022-11-09T10:26:42.391Z,91.40
2022-11-09T10:29:31.605Z,91.00
2022-11-09T10:32:22.446Z,91.50
2022-11-09T10:34:56.493Z,90.40
2022-11-09T10:37:39.015Z,90.00
2022-11-09T10:40:09.228Z,91.60
2022-11-09T10:42:35.940Z,91.90
2022-11-09T10:45:27.837Z,90.50
2022-11-09T10:47:54.876Z,93.00
2022-11-09T10:50:40.532Z,91.80
2022-11-09T10:53:28.132Z,93.00
2022-11-09T10:55:55.866Z,93.60
2022-11-09T10:58:40.871Z,93.70
2022-11-09T11:01:19.550Z,92.50
2022-11-09T11:03:49.855Z,92.60
2022-11-09T11:06:17.749Z,93.60
2022-11-09T11:08:47.103Z,94.00
2022-11-09T11:11:33.366Z,95.40
2022-11-09T11:14:30.623Z,94.80
2022-11-09T11:16:57.420Z,94.10
2022-11-09T11:19:37.348Z,93.70
2022-11-09T11:22:14.370Z,94.70
2022-11-09T11:24:59.500Z,95.20
2022-11-09T11:27:36.011Z,95.00
2022-11-09T11:30:22.818Z,94.30
2022-11-09T11:32:50.956Z,94.00
2022-11-09T11:35:21.868Z,94.30
2022-11-09T11:38:14.130Z,93.50
2022-11-09T11:40:59.779Z,94.10
2022-11-09T11:43:48.722Z,93.70
2022-11-09T11:46:30.031Z,94.00
2022-11-09T11:49:37.879Z,93.60
2022-11-09T11:52:38.444Z,94.00
2022-11-09T11:55:39.012Z,93.70
2022-11-09T11:58:18.021Z,92.50
2022-11-09T12:01:07.967Z,95.00
2022-11-09T12:03:50.453Z,92.50
2022-11-09T12:06:48.836Z,92.80
2022-11-09T12:09:30.898Z,92.80
2022-11-09T12:12:12.961Z,92.70
2022-11-09T12:15:05.230Z,93.00
2022-11-09T12:17:48.688Z,93.20
2022-11-09T12:20:18.140Z,91.70
2022-11-09T12:22:56.655Z,91.80
2022-11-09T12:25:38.006Z,91.70
2022-11-09T12:28:36.080Z,92.10
2022-11-09T12:31:24.844Z,91.80
2022-11-09T12:34:02.230Z,92.70
2022-11-09T12:36:45.322Z,92.40
2022-11-09T12:39:20.266Z,90.80
2022-11-09T12:41:48.643Z,91.10
2022-11-09T12:44:25.223Z,91.50
2022-11-09T12:47:03.666Z,90.70
2022-11-09T12:49:42.143Z,91.70
2022-11-09T12:52:12.290Z,91.20
2022-11-09T12:54:42.705Z,92.40
2022-11-09T12:57:17.299Z,92.40
2022-11-09T12:59:50.376Z,92.30
2022-11-09T13:02:23.666Z,92.50
2022-11-09T13:04:59.088Z,93.30
2022-11-09T13:07:53.871Z,93.40
2022-11-09T13:10:32.593Z,92.70
2022-11-09T13:13:14.051Z,93.40
2022-11-09T13:16:11.107Z,93.60
2022-11-09T13:18:42.889Z,92.90
2022-11-09T13:21:20.933Z,92.90
2022-11-09T13:24:06.947Z,93.50
2022-11-09T13:26:37.923Z,92.30
2022-11-09T13:29:15.089Z,92.90
2022-11-09T13:32:01.603Z,93.30
2022-11-09T13:34:54.514Z,91.80
2022-11-09T13:37:43.282Z,93.20
2022-11-09T13:40:31.886Z,92.70
2022-11-09T13:43:01.510Z,92.40
2022-11-09T13:45:37.659Z,92.70
2022-11-09T13:48:05.715Z,92.60
2022-11-09T13:50:33.923Z,92.00
2022-11-09T13:53:01.348Z,93.10
2022-11-09T13:55:42.520Z,93.30
2022-11-09T13:58:21.542Z,93.30
2022-11-09T14:00:49.083Z,93.80
2022-11-09T14:03:24.706Z,92.70
2022-11-09T14:05:54.404Z,92.20
2022-11-09T14:08:30.766Z,93.00
2022-11-09T14:11:22.460Z,92.20
2022-11-09T14:14:27.101Z,92.50
2022-11-09T14:17:21.587Z,92.20
2022-11-09T14:20:19.097Z,93.50
2022-11-09T14:22:45.736Z,93.50
2022-11-09T14:25:17.740Z,93.60
2022-11-09T14:27:50.587Z,94.00
2022-11-09T14:30:29.042Z,93.70
2022-11-09T14:32:56.862Z,92.60
2022-11-09T14:35:35.144Z,92.40
2022-11-09T14:38:37.052Z,92.60
2022-11-09T14:41:20.069Z,93.30
2022-11-09T14:43:48.627Z,92.50
2022-11-09T14:46:20.815Z,92.60
2022-11-09T14:48:58.772Z,93.30
2022-11-09T14:51:39.324Z,92.90
2022-11-09T14:54:17.530Z,93.20
2022-11-09T14:56:45.069Z,93.90
2022-11-09T14:59:17.814Z,93.00
2022-11-09T15:02:03.259Z,92.50
2022-11-09T15:04:30.277Z,92.10
2022-11-09T15:07:00.361Z,92.20
2022-11-09T15:09:36.440Z,91.20
2022-11-09T15:12:03.468Z,91.20
2022-11-09T15:14:33.981Z,90.60
2022-11-09T15:17:14.194Z,91.00
2022-11-09T15:20:22.577Z,90.10
2022-11-09T15:22:53.789Z,90.40
2022-11-09T15:25:42.488Z,92.60
2022-11-09T15:28:12.216Z,91.40
2022-11-09T15:30:49.977Z,90.50
2022-11-09T15:33:26.155Z,89.00
2022-11-09T15:35:59.163Z,89.10
2022-11-09T15:38:37.755Z,88.40
2022-11-09T15:41:11.067Z,89.80
2022-11-09T15:43:37.886Z,87.90
2022-11-09T15:46:05.438Z,90.80
2022-11-09T15:48:32.550Z,90.10
2022-11-09T15:50:59.691Z,86.50
2022-11-09T15:53:26.765Z,85.60
2022-11-09T15:55:53.495Z,86.60
2022-11-09T15:58:20.581Z,85.60
2022-11-09T16:00:47.625Z,84.00
2022-11-09T16:03:17.258Z,83.20
2022-11-09T16:05:45.027Z,81.60
2022-11-09T16:08:12.125Z,79.90
2022-11-09T16:10:39.995Z,81.10
2022-11-09T16:13:08.099Z,82.00
2022-11-09T16:15:36.439Z,80.70
2022-11-09T16:18:03.585Z,80.80
2022-11-09T16:20:30.689Z,78.40
2022-11-09T16:22:57.588Z,76.90
2022-11-09T16:25:24.702Z,76.80
2022-11-09T16:27:51.640Z,76.00
2022-11-09T16:30:20.032Z,77.20
2022-11-09T16:32:46.876Z,76.70
2022-11-09T16:35:29.311Z,78.10
2022-11-09T16:37:56.433Z,77.20
2022-11-09T16:40:23.409Z,76.70
2022-11-09T16:42:51.688Z,77.00
2022-11-09T16:45:20.189Z,75.30
2022-11-09T16:47:50.063Z,74.60
2022-11-09T16:50:17.626Z,74.00
2022-11-09T16:52:44.877Z,73.30
2022-11-09T16:55:11.732Z,72.70
2022-11-09T16:57:38.423Z,71.90
2022-11-09T17:00:06.913Z,70.00
2022-11-09T17:02:34.465Z,71.80
2022-11-09T17:05:01.169Z,77.10
2022-11-09T17:07:27.915Z,78.50
2022-11-09T17:09:56.014Z,78.30
2022-11-09T17:12:22.701Z,79.20
2022-11-09T17:14:49.495Z,79.70
2022-11-09T17:17:22.384Z,78.80
2022-11-09T17:19:49.855Z,82.20
2022-11-09T17:22:17.356Z,85.40
2022-11-09T17:24:44.112Z,84.50
2022-11-09T17:27:11.454Z,81.80
2022-11-09T17:29:38.531Z,79.30
2022-11-09T17:32:07.138Z,79.60
2022-11-09T17:34:34.114Z,80.70
2022-11-09T17:37:04.834Z,81.70
2022-11-09T17:39:32.976Z,80.00
2022-11-09T17:41:59.804Z,78.70
2022-11-09T17:44:26.486Z,81.90
2022-11-09T17:46:53.256Z,80.30
2022-11-09T17:49:19.913Z,81.60
2022-11-09T17:51:46.634Z,82.70
2022-11-09T17:54:14.893Z,83.10
2022-11-09T17:56:41.802Z,83.80
2022-11-09T17:59:08.593Z,84.90
2022-11-09T18:01:41.181Z,83.20
2022-11-09T18:04:10.284Z,83.40
2022-11-09T18:06:37.398Z,84.10
2022-11-09T18:09:39.109Z,83.70
2022-11-09T18:11:51.357Z,83.90
2022-11-09T18:14:18.243Z,86.10
2022-11-09T18:16:45.262Z,84.70
2022-11-09T18:19:12.320Z,86.00
2022-11-09T18:21:39.099Z,86.70
2022-11-09T18:24:06.125Z,84.60
2022-11-09T18:26:32.943Z,84.80
2022-11-09T18:28:59.730Z,86.50
2022-11-09T18:31:26.657Z,84.80
2022-11-09T18:33:53.523Z,86.10
2022-11-09T18:36:21.585Z,85.40
2022-11-09T18:38:51.816Z,85.70
2022-11-09T18:41:21.944Z,86.80
2022-11-09T18:43:49.978Z,85.80
2022-11-09T18:46:18.076Z,85.40
2022-11-09T18:48:45.033Z,86.30
2022-11-09T18:51:12.419Z,87.00
2022-11-09T18:53:43.994Z,87.40
2022-11-09T18:56:19.058Z,86.20
2022-11-09T18:58:46.451Z,87.20
2022-11-09T19:01:13.847Z,87.10
2022-11-09T19:03:40.806Z,87.60
2022-11-09T19:06:18.448Z,88.20
2022-11-09T19:09:04.239Z,88.40
2022-11-09T19:11:31.708Z,88.50
2022-11-09T19:13:58.676Z,89.30
2022-11-09T19:16:26.362Z,88.10
2022-11-09T19:18:53.345Z,88.70
2022-11-09T19:21:58.225Z,88.70
2022-11-09T19:24:26.190Z,87.60
2022-11-09T19:26:55.677Z,88.00
2022-11-09T19:29:22.540Z,86.30
2022-11-09T19:31:49.608Z,85.90
2022-11-09T19:34:19.081Z,86.40
2022-11-09T19:36:46.267Z,85.60
2022-11-09T19:39:16.242Z,84.80
2022-11-09T19:41:42.991Z,80.90
2022-11-09T19:44:12.811Z,82.30
2022-11-09T19:46:39.965Z,79.60
2022-11-09T19:49:07.381Z,81.80
2022-11-09T19:51:34.887Z,80.70
2022-11-09T19:54:03.768Z,77.60
2022-11-09T19:56:32.102Z,76.00
2022-11-09T19:59:01.221Z,79.70
2022-11-09T20:01:28.626Z,80.10
2022-11-09T20:03:57.583Z,80.40
2022-11-09T20:06:25.379Z,84.80
2022-11-09T20:08:53.882Z,83.20
2022-11-09T20:11:41.832Z,79.80
2022-11-09T20:14:09.611Z,80.50
2022-11-09T20:16:37.159Z,82.20
2022-11-09T20:19:05.082Z,81.70
2022-11-09T20:21:32.158Z,80.60
2022-11-09T20:23:59.236Z,81.50
2022-11-09T20:26:26.166Z,83.70
2022-11-09T20:28:55.693Z,83.60
2022-11-09T20:31:23.412Z,83.70
2022-11-09T20:33:50.798Z,84.70
2022-11-09T20:36:18.939Z,86.50
2022-11-09T20:38:46.818Z,87.10
2022-11-09T20:41:13.761Z,86.20
2022-11-09T20:43:40.812Z,84.20
2022-11-09T20:46:09.961Z,85.10
2022-11-09T20:48:53.661Z,86.30
2022-11-09T20:51:21.989Z,86.70
2022-11-09T20:53:50.306Z,88.00
2022-11-09T20:56:18.226Z,89.80
2022-11-09T20:58:45.101Z,83.40
2022-11-09T21:01:14.993Z,85.00
2022-11-09T21:03:42.283Z,83.80
2022-11-09T21:06:10.228Z,84.80
2022-11-09T21:08:37.190Z,85.50
2022-11-09T21:11:06.119Z,84.60
2022-11-09T21:13:33.153Z,87.00
2022-11-09T21:16:06.858Z,90.50
2022-11-09T21:18:34.115Z,89.40
2022-11-09T21:21:11.835Z,90.30
2022-11-09T21:23:57.624Z,90.30
2022-11-09T21:26:43.988Z,90.40
2022-11-09T21:29:35.512Z,88.60
2022-11-09T21:32:02.861Z,90.30
2022-11-09T21:34:35.404Z,90.40
2022-11-09T21:37:03.557Z,89.80
2022-11-09T21:39:30.657Z,90.10
2022-11-09T21:41:57.381Z,88.40
2022-11-09T21:44:24.245Z,89.00
2022-11-09T21:46:50.974Z,88.90
2022-11-09T21:49:17.670Z,90.20
2022-11-09T21:51:44.508Z,88.40
2022-11-09T21:54:11.338Z,86.60
2022-11-09T21:56:38.242Z,86.50
2022-11-09T21:59:05.116Z,88.10
2022-11-09T22:01:32.222Z,89.90
2022-11-09T22:03:59.248Z,89.50
2022-11-09T22:06:26.173Z,89.50
2022-11-09T22:08:53.387Z,89.30
2022-11-09T22:11:45.417Z,88.80
2022-11-09T22:14:35.556Z,90.10
2022-11-09T22:17:03.421Z,88.50
2022-11-09T22:19:48.928Z,89.30
2022-11-09T22:22:16.033Z,89.10
2022-11-09T22:24:42.941Z,90.00
2022-11-09T22:27:09.655Z,90.20
2022-11-09T22:29:36.449Z,90.00
2022-11-09T22:32:03.386Z,90.10
2022-11-09T22:34:30.128Z,90.50
2022-11-09T22:36:57.008Z,90.30
2022-11-09T22:39:23.924Z,89.60
2022-11-09T22:41:50.894Z,89.80
2022-11-09T22:44:18.109Z,89.70
2022-11-09T22:46:44.780Z,89.00
2022-11-09T22:49:11.487Z,89.70
2022-11-09T22:51:38.265Z,89.70
2022-11-09T22:54:05.047Z,90.30
2022-11-09T22:56:31.736Z,90.30
2022-11-09T22:58:58.530Z,90.40
2022-11-09T23:01:25.314Z,90.80
2022-11-09T23:03:52.572Z,90.60
2022-11-09T23:06:21.608Z,90.40
2022-11-09T23:08:48.862Z,90.90
2022-11-09T23:11:18.098Z,90.70
2022-11-09T23:13:48.129Z,90.90
2022-11-09T23:16:14.911Z,90.90
2022-11-09T23:18:54.822Z,90.70
2022-11-09T23:21:24.355Z,91.30
2022-11-09T23:23:52.271Z,91.00
2022-11-09T23:26:19.299Z,90.90
2022-11-09T23:28:46.123Z,91.70
2022-11-09T23:31:16.373Z,90.40
2022-11-09T23:33:43.433Z,90.70
2022-11-09T23:36:10.581Z,90.70
2022-11-09T23:38:38.626Z,90.90
2022-11-09T23:41:10.895Z,91.20
2022-11-09T23:43:37.619Z,90.60
2022-11-09T23:46:10.491Z,90.50
2022-11-09T23:48:37.235Z,90.30
2022-11-09T23:51:04.682Z,90.60
2022-11-09T23:53:31.986Z,91.00
2022-11-09T23:56:03.484Z,91.10
2022-11-09T23:58:30.309Z,90.80
